sensor_id;sensor_type;location;lat;lon;timestamp;pressure;altitude;pressure_sealevel;temperature;humidity
20156;BME280;10238;49.556;10.956;2023-05-14T00:00:45;98404.91;;;8.40;100.00
20156;BME280;10238;49.556;10.956;2023-05-14T00:03:34;98398.75;;;8.39;100.00
20156;BME280;10238;49.556;10.956;2023-05-14T00:06:23;98394.19;;;8.41;100.00
20156;BME280;10238;49.556;10.956;2023-05-14T00:09:10;98388.88;;;8.41;100.00
20156;BME280;10238;49.556;10.956;2023-05-14T00:11:58;98394.31;;;8.40;100.00
20156;BME280;10238;49.556;10.956;2023-05-14T00:14:46;98386.66;;;8.37;100.00
20156;BME280;10238;49.556;10.956;2023-05-14T00:17:34;98382.19;;;8.28;100.00
20156;BME280;10238;49.556;10.956;2023-05-14T00:20:22;98377.44;;;8.22;100.00
20156;BME280;10238;49.556;10.956;2023-05-14T00:23:10;98374.09;;;8.20;100.00
20156;BME280;10238;49.556;10.956;2023-05-14T00:25:58;98370.16;;;8.14;100.00
20156;BME280;10238;49.556;10.956;2023-05-14T00:28:45;98372.13;;;8.12;100.00
20156;BME280;10238;49.556;10.956;2023-05-14T00:31:32;98380.47;;;8.17;100.00
20156;BME280;10238;49.556;10.956;2023-05-14T00:34:21;98379.66;;;8.17;100.00
20156;BME280;10238;49.556;10.956;2023-05-14T00:37:10;98378.94;;;8.15;100.00
20156;BME280;10238;49.556;10.956;2023-05-14T00:39:57;98373.53;;;8.16;100.00
20156;BME280;10238;49.556;10.956;2023-05-14T00:42:45;98379.09;;;8.13;100.00
20156;BME280;10238;49.556;10.956;2023-05-14T00:45:33;98369.34;;;8.14;100.00
20156;BME280;10238;49.556;10.956;2023-05-14T00:48:21;98371.56;;;8.09;100.00
20156;BME280;10238;49.556;10.956;2023-05-14T00:51:09;98373.38;;;7.99;100.00
20156;BME280;10238;49.556;10.956;2023-05-14T00:53:58;98374.91;;;7.92;100.00
20156;BME280;10238;49.556;10.956;2023-05-14T00:56:47;98373.25;;;7.91;100.00
20156;BME280;10238;49.556;10.956;2023-05-14T00:59:36;98375.88;;;7.91;100.00
20156;BME280;10238;49.556;10.956;2023-05-14T01:02:26;98376.84;;;7.90;100.00
20156;BME280;10238;49.556;10.956;2023-05-14T01:05:14;98371.81;;;7.87;100.00
20156;BME280;10238;49.556;10.956;2023-05-14T01:08:09;98375.84;;;7.81;100.00
20156;BME280;10238;49.556;10.956;2023-05-14T01:11:08;98379.03;;;7.75;100.00
20156;BME280;10238;49.556;10.956;2023-05-14T01:14:11;98377.66;;;7.71;100.00
20156;BME280;10238;49.556;10.956;2023-05-14T01:17:03;98371.91;;;7.66;100.00
20156;BME280;10238;49.556;10.956;2023-05-14T01:19:52;98374.69;;;7.65;100.00
20156;BME280;10238;49.556;10.956;2023-05-14T01:22:43;98369.41;;;7.65;100.00
20156;BME280;10238;49.556;10.956;2023-05-14T01:25:31;98371.09;;;7.66;100.00
20156;BME280;10238;49.556;10.956;2023-05-14T01:28:25;98359.00;;;7.73;100.00
20156;BME280;10238;49.556;10.956;2023-05-14T01:31:22;98362.34;;;7.75;100.00
20156;BME280;10238;49.556;10.956;2023-05-14T01:34:17;98358.44;;;7.79;100.00
20156;BME280;10238;49.556;10.956;2023-05-14T01:37:08;98361.22;;;7.77;100.00
20156;BME280;10238;49.556;10.956;2023-05-14T01:40:04;98365.00;;;7.75;100.00
20156;BME280;10238;49.556;10.956;2023-05-14T01:42:53;98362.63;;;7.72;100.00
20156;BME280;10238;49.556;10.956;2023-05-14T01:45:43;98368.19;;;7.69;100.00
20156;BME280;10238;49.556;10.956;2023-05-14T01:48:31;98372.50;;;7.70;100.00
20156;BME280;10238;49.556;10.956;2023-05-14T01:51:21;98371.81;;;7.77;100.00
20156;BME280;10238;49.556;10.956;2023-05-14T01:54:09;98371.28;;;7.83;100.00
20156;BME280;10238;49.556;10.956;2023-05-14T01:56:59;98367.09;;;7.90;100.00
20156;BME280;10238;49.556;10.956;2023-05-14T01:59:46;98363.19;;;7.94;100.00
20156;BME280;10238;49.556;10.956;2023-05-14T02:02:34;98360.41;;;7.96;100.00
20156;BME280;10238;49.556;10.956;2023-05-14T02:05:21;98366.53;;;8.06;100.00
20156;BME280;10238;49.556;10.956;2023-05-14T02:08:09;98361.25;;;8.06;100.00
20156;BME280;10238;49.556;10.956;2023-05-14T02:10:59;98359.31;;;8.08;100.00
20156;BME280;10238;49.556;10.956;2023-05-14T02:13:50;98360.03;;;8.10;100.00
20156;BME280;10238;49.556;10.956;2023-05-14T02:16:37;98353.47;;;8.14;100.00
20156;BME280;10238;49.556;10.956;2023-05-14T02:19:25;98355.13;;;8.15;100.00
20156;BME280;10238;49.556;10.956;2023-05-14T02:22:13;98356.50;;;8.19;100.00
20156;BME280;10238;49.556;10.956;2023-05-14T02:25:01;98350.97;;;8.22;100.00
20156;BME280;10238;49.556;10.956;2023-05-14T02:27:48;98354.31;;;8.24;100.00
20156;BME280;10238;49.556;10.956;2023-05-14T02:30:37;98352.09;;;8.29;100.00
20156;BME280;10238;49.556;10.956;2023-05-14T02:33:25;98355.16;;;8.34;100.00
20156;BME280;10238;49.556;10.956;2023-05-14T02:36:12;98352.22;;;8.37;100.00
20156;BME280;10238;49.556;10.956;2023-05-14T02:39:01;98352.78;;;8.40;100.00
20156;BME280;10238;49.556;10.956;2023-05-14T02:41:51;98345.66;;;8.41;100.00
20156;BME280;10238;49.556;10.956;2023-05-14T02:44:39;98334.25;;;8.40;100.00
20156;BME280;10238;49.556;10.956;2023-05-14T02:47:27;98340.34;;;8.41;100.00
20156;BME280;10238;49.556;10.956;2023-05-14T02:50:15;98334.91;;;8.42;100.00
20156;BME280;10238;49.556;10.956;2023-05-14T02:53:03;98335.06;;;8.41;100.00
20156;BME280;10238;49.556;10.956;2023-05-14T02:55:51;98334.78;;;8.44;100.00
20156;BME280;10238;49.556;10.956;2023-05-14T02:58:39;98329.75;;;8.41;100.00
20156;BME280;10238;49.556;10.956;2023-05-14T03:01:26;98333.81;;;8.45;100.00
20156;BME280;10238;49.556;10.956;2023-05-14T03:04:16;98333.22;;;8.51;100.00
20156;BME280;10238;49.556;10.956;2023-05-14T03:07:06;98328.34;;;8.56;100.00
20156;BME280;10238;49.556;10.956;2023-05-14T03:09:53;98332.38;;;8.60;100.00
20156;BME280;10238;49.556;10.956;2023-05-14T03:12:41;98327.94;;;8.60;100.00
20156;BME280;10238;49.556;10.956;2023-05-14T03:15:29;98331.94;;;8.64;100.00
20156;BME280;10238;49.556;10.956;2023-05-14T03:18:17;98334.16;;;8.69;100.00
20156;BME280;10238;49.556;10.956;2023-05-14T03:21:06;98333.88;;;8.72;100.00
20156;BME280;10238;49.556;10.956;2023-05-14T03:23:55;98330.25;;;8.73;100.00
20156;BME280;10238;49.556;10.956;2023-05-14T03:26:42;98334.72;;;8.72;100.00
20156;BME280;10238;49.556;10.956;2023-05-14T03:29:30;98333.59;;;8.75;100.00
20156;BME280;10238;49.556;10.956;2023-05-14T03:32:19;98330.66;;;8.78;100.00
20156;BME280;10238;49.556;10.956;2023-05-14T03:35:07;98326.88;;;8.80;100.00
20156;BME280;10238;49.556;10.956;2023-05-14T03:37:57;98333.31;;;8.78;100.00
20156;BME280;10238;49.556;10.956;2023-05-14T03:40:45;98332.47;;;8.77;100.00
20156;BME280;10238;49.556;10.956;2023-05-14T03:43:33;98339.59;;;8.77;100.00
20156;BME280;10238;49.556;10.956;2023-05-14T03:46:26;98341.13;;;8.79;100.00
20156;BME280;10238;49.556;10.956;2023-05-14T03:49:13;98340.00;;;8.82;100.00
20156;BME280;10238;49.556;10.956;2023-05-14T03:52:01;98336.66;;;8.80;100.00
20156;BME280;10238;49.556;10.956;2023-05-14T03:54:50;98334.84;;;8.80;100.00
20156;BME280;10238;49.556;10.956;2023-05-14T03:57:37;98326.88;;;8.80;100.00
20156;BME280;10238;49.556;10.956;2023-05-14T04:00:25;98334.69;;;8.82;100.00
20156;BME280;10238;49.556;10.956;2023-05-14T04:03:12;98340.41;;;8.87;100.00
20156;BME280;10238;49.556;10.956;2023-05-14T04:06:01;98332.97;;;8.91;100.00
20156;BME280;10238;49.556;10.956;2023-05-14T04:08:49;98336.47;;;8.91;100.00
20156;BME280;10238;49.556;10.956;2023-05-14T04:11:37;98334.25;;;8.96;100.00
20156;BME280;10238;49.556;10.956;2023-05-14T04:14:25;98343.56;;;9.00;100.00
20156;BME280;10238;49.556;10.956;2023-05-14T04:17:12;98344.28;;;9.02;100.00
20156;BME280;10238;49.556;10.956;2023-05-14T04:20:00;98337.69;;;9.06;100.00
20156;BME280;10238;49.556;10.956;2023-05-14T04:22:50;98333.91;;;9.09;100.00
20156;BME280;10238;49.556;10.956;2023-05-14T04:25:39;98337.94;;;9.13;100.00
20156;BME280;10238;49.556;10.956;2023-05-14T04:28:28;98332.34;;;9.16;100.00
20156;BME280;10238;49.556;10.956;2023-05-14T04:31:16;98345.44;;;9.17;100.00
20156;BME280;10238;49.556;10.956;2023-05-14T04:34:04;98342.66;;;9.19;100.00
20156;BME280;10238;49.556;10.956;2023-05-14T04:36:51;98343.19;;;9.22;100.00
20156;BME280;10238;49.556;10.956;2023-05-14T04:39:39;98335.91;;;9.24;100.00
20156;BME280;10238;49.556;10.956;2023-05-14T04:42:27;98336.19;;;9.31;100.00
20156;BME280;10238;49.556;10.956;2023-05-14T04:45:16;98333.09;;;9.35;100.00
20156;BME280;10238;49.556;10.956;2023-05-14T04:48:04;98338.19;;;9.46;100.00
20156;BME280;10238;49.556;10.956;2023-05-14T04:50:53;98350.81;;;9.62;100.00
20156;BME280;10238;49.556;10.956;2023-05-14T04:53:40;98340.13;;;9.71;100.00
20156;BME280;10238;49.556;10.956;2023-05-14T04:56:28;98333.16;;;9.70;100.00
20156;BME280;10238;49.556;10.956;2023-05-14T04:59:15;98341.59;;;9.83;100.00
20156;BME280;10238;49.556;10.956;2023-05-14T05:02:04;98335.06;;;9.78;100.00
20156;BME280;10238;49.556;10.956;2023-05-14T05:04:54;98329.16;;;9.84;100.00
20156;BME280;10238;49.556;10.956;2023-05-14T05:07:42;98334.63;;;10.00;100.00
20156;BME280;10238;49.556;10.956;2023-05-14T05:10:29;98320.28;;;10.10;100.00
20156;BME280;10238;49.556;10.956;2023-05-14T05:13:17;98323.63;;;10.12;100.00
20156;BME280;10238;49.556;10.956;2023-05-14T05:16:05;98326.38;;;10.20;100.00
20156;BME280;10238;49.556;10.956;2023-05-14T05:18:54;98313.63;;;10.24;100.00
20156;BME280;10238;49.556;10.956;2023-05-14T05:21:43;98317.25;;;10.40;100.00
20156;BME280;10238;49.556;10.956;2023-05-14T05:24:30;98320.91;;;10.39;100.00
20156;BME280;10238;49.556;10.956;2023-05-14T05:27:18;98317.59;;;10.45;100.00
20156;BME280;10238;49.556;10.956;2023-05-14T05:30:08;98314.16;;;10.53;100.00
20156;BME280;10238;49.556;10.956;2023-05-14T05:32:56;98320.06;;;10.64;100.00
20156;BME280;10238;49.556;10.956;2023-05-14T05:35:45;98319.41;;;10.62;100.00
20156;BME280;10238;49.556;10.956;2023-05-14T05:38:33;98305.50;;;10.68;100.00
20156;BME280;10238;49.556;10.956;2023-05-14T05:41:20;98312.25;;;10.88;100.00
20156;BME280;10238;49.556;10.956;2023-05-14T05:44:08;98307.47;;;10.92;100.00
20156;BME280;10238;49.556;10.956;2023-05-14T05:46:56;98307.97;;;10.95;100.00
20156;BME280;10238;49.556;10.956;2023-05-14T05:49:43;98299.66;;;10.98;100.00
20156;BME280;10238;49.556;10.956;2023-05-14T05:52:32;98304.06;;;11.16;100.00
20156;BME280;10238;49.556;10.956;2023-05-14T05:55:20;98305.59;;;11.18;100.00
20156;BME280;10238;49.556;10.956;2023-05-14T05:58:08;98296.66;;;11.35;100.00
20156;BME280;10238;49.556;10.956;2023-05-14T06:00:55;98302.50;;;11.39;100.00
20156;BME280;10238;49.556;10.956;2023-05-14T06:03:43;98290.91;;;11.48;100.00
20156;BME280;10238;49.556;10.956;2023-05-14T06:06:34;98300.56;;;11.57;100.00
20156;BME280;10238;49.556;10.956;2023-05-14T06:09:23;98299.94;;;11.63;100.00
20156;BME280;10238;49.556;10.956;2023-05-14T06:12:10;98301.97;;;11.69;100.00
20156;BME280;10238;49.556;10.956;2023-05-14T06:14:57;98299.34;;;11.77;100.00
20156;BME280;10238;49.556;10.956;2023-05-14T06:17:45;98295.66;;;11.86;100.00
20156;BME280;10238;49.556;10.956;2023-05-14T06:20:35;98301.69;;;12.04;100.00
20156;BME280;10238;49.556;10.956;2023-05-14T06:23:23;98305.69;;;12.16;100.00
20156;BME280;10238;49.556;10.956;2023-05-14T06:26:12;98303.22;;;12.38;100.00
20156;BME280;10238;49.556;10.956;2023-05-14T06:29:00;98308.72;;;12.53;100.00
20156;BME280;10238;49.556;10.956;2023-05-14T06:31:51;98307.00;;;12.68;100.00
20156;BME280;10238;49.556;10.956;2023-05-14T06:34:40;98302.31;;;12.78;100.00
20156;BME280;10238;49.556;10.956;2023-05-14T06:37:27;98306.00;;;12.85;100.00
20156;BME280;10238;49.556;10.956;2023-05-14T06:40:15;98305.81;;;12.86;100.00
20156;BME280;10238;49.556;10.956;2023-05-14T06:43:03;98307.31;;;12.89;100.00
20156;BME280;10238;49.556;10.956;2023-05-14T06:45:52;98298.13;;;12.91;100.00
20156;BME280;10238;49.556;10.956;2023-05-14T06:48:40;98288.44;;;13.07;100.00
20156;BME280;10238;49.556;10.956;2023-05-14T06:51:27;98293.03;;;13.29;100.00
20156;BME280;10238;49.556;10.956;2023-05-14T06:54:15;98289.94;;;13.48;100.00
20156;BME280;10238;49.556;10.956;2023-05-14T06:57:03;98289.16;;;13.70;100.00
20156;BME280;10238;49.556;10.956;2023-05-14T06:59:52;98286.09;;;13.81;100.00
20156;BME280;10238;49.556;10.956;2023-05-14T07:02:39;98292.97;;;13.75;100.00
20156;BME280;10238;49.556;10.956;2023-05-14T07:05:27;98289.97;;;13.70;100.00
20156;BME280;10238;49.556;10.956;2023-05-14T07:08:15;98288.31;;;13.69;100.00
20156;BME280;10238;49.556;10.956;2023-05-14T07:11:02;98291.66;;;13.71;100.00
20156;BME280;10238;49.556;10.956;2023-05-14T07:13:50;98288.69;;;13.66;100.00
20156;BME280;10238;49.556;10.956;2023-05-14T07:16:40;98289.63;;;13.73;100.00
20156;BME280;10238;49.556;10.956;2023-05-14T07:19:29;98278.38;;;13.86;100.00
20156;BME280;10238;49.556;10.956;2023-05-14T07:22:17;98278.72;;;14.05;100.00
20156;BME280;10238;49.556;10.956;2023-05-14T07:25:05;98268.91;;;14.28;100.00
20156;BME280;10238;49.556;10.956;2023-05-14T07:27:53;98267.28;;;14.56;100.00
20156;BME280;10238;49.556;10.956;2023-05-14T07:30:41;98257.94;;;14.89;100.00
20156;BME280;10238;49.556;10.956;2023-05-14T07:33:30;98263.09;;;15.05;100.00
20156;BME280;10238;49.556;10.956;2023-05-14T07:36:19;98253.59;;;15.03;100.00
20156;BME280;10238;49.556;10.956;2023-05-14T07:39:06;98250.72;;;15.34;100.00
20156;BME280;10238;49.556;10.956;2023-05-14T07:41:54;98254.50;;;15.54;100.00
20156;BME280;10238;49.556;10.956;2023-05-14T07:44:42;98247.44;;;15.67;100.00
20156;BME280;10238;49.556;10.956;2023-05-14T07:47:30;98249.66;;;15.64;100.00
20156;BME280;10238;49.556;10.956;2023-05-14T07:50:19;98242.91;;;15.68;100.00
20156;BME280;10238;49.556;10.956;2023-05-14T07:53:08;98239.06;;;15.56;100.00
20156;BME280;10238;49.556;10.956;2023-05-14T07:55:55;98242.28;;;15.66;100.00
20156;BME280;10238;49.556;10.956;2023-05-14T07:58:45;98242.28;;;15.87;100.00
20156;BME280;10238;49.556;10.956;2023-05-14T08:01:32;98237.94;;;15.86;100.00
20156;BME280;10238;49.556;10.956;2023-05-14T08:04:22;98239.88;;;15.92;100.00
20156;BME280;10238;49.556;10.956;2023-05-14T08:07:14;98236.53;;;15.90;100.00
20156;BME280;10238;49.556;10.956;2023-05-14T08:10:03;98238.25;;;15.97;100.00
20156;BME280;10238;49.556;10.956;2023-05-14T08:12:53;98231.09;;;16.04;100.00
20156;BME280;10238;49.556;10.956;2023-05-14T08:15:41;98232.97;;;16.04;100.00
20156;BME280;10238;49.556;10.956;2023-05-14T08:18:28;98242.50;;;16.06;100.00
20156;BME280;10238;49.556;10.956;2023-05-14T08:21:16;98239.69;;;15.93;100.00
20156;BME280;10238;49.556;10.956;2023-05-14T08:24:05;98239.16;;;15.83;100.00
20156;BME280;10238;49.556;10.956;2023-05-14T08:26:53;98234.75;;;15.76;100.00
20156;BME280;10238;49.556;10.956;2023-05-14T08:29:41;98240.72;;;15.92;100.00
20156;BME280;10238;49.556;10.956;2023-05-14T08:32:29;98232.66;;;15.92;100.00
20156;BME280;10238;49.556;10.956;2023-05-14T08:35:16;98238.72;;;16.01;100.00
20156;BME280;10238;49.556;10.956;2023-05-14T08:38:04;98233.47;;;15.93;100.00
20156;BME280;10238;49.556;10.956;2023-05-14T08:40:56;98234.25;;;16.08;100.00
20156;BME280;10238;49.556;10.956;2023-05-14T08:44:03;98227.84;;;16.09;100.00
20156;BME280;10238;49.556;10.956;2023-05-14T08:46:53;98233.72;;;15.77;100.00
20156;BME280;10238;49.556;10.956;2023-05-14T08:49:44;98240.66;;;16.07;100.00
20156;BME280;10238;49.556;10.956;2023-05-14T08:52:36;98242.22;;;16.22;100.00
20156;BME280;10238;49.556;10.956;2023-05-14T08:55:29;98229.19;;;15.98;100.00
20156;BME280;10238;49.556;10.956;2023-05-14T08:58:23;98232.78;;;16.05;100.00
20156;BME280;10238;49.556;10.956;2023-05-14T09:01:11;98224.22;;;16.16;100.00
20156;BME280;10238;49.556;10.956;2023-05-14T09:04:00;98228.25;;;16.06;100.00
20156;BME280;10238;49.556;10.956;2023-05-14T09:06:54;98223.75;;;16.34;100.00
20156;BME280;10238;49.556;10.956;2023-05-14T09:09:42;98215.56;;;16.42;100.00
20156;BME280;10238;49.556;10.956;2023-05-14T09:12:32;98217.09;;;16.51;100.00
20156;BME280;10238;49.556;10.956;2023-05-14T09:15:22;98214.66;;;16.56;100.00
20156;BME280;10238;49.556;10.956;2023-05-14T09:18:12;98213.53;;;16.44;100.00
20156;BME280;10238;49.556;10.956;2023-05-14T09:21:00;98217.84;;;16.66;100.00
20156;BME280;10238;49.556;10.956;2023-05-14T09:23:53;98215.09;;;16.87;100.00
20156;BME280;10238;49.556;10.956;2023-05-14T09:26:41;98213.34;;;17.07;100.00
20156;BME280;10238;49.556;10.956;2023-05-14T09:29:29;98210.50;;;16.81;100.00
20156;BME280;10238;49.556;10.956;2023-05-14T09:32:18;98211.75;;;16.85;100.00
20156;BME280;10238;49.556;10.956;2023-05-14T09:35:17;98209.84;;;17.13;100.00
20156;BME280;10238;49.556;10.956;2023-05-14T09:38:05;98208.88;;;16.86;100.00
20156;BME280;10238;49.556;10.956;2023-05-14T09:40:53;98217.34;;;17.24;100.00
20156;BME280;10238;49.556;10.956;2023-05-14T09:43:40;98208.78;;;17.48;100.00
20156;BME280;10238;49.556;10.956;2023-05-14T09:46:31;98202.00;;;17.59;100.00
20156;BME280;10238;49.556;10.956;2023-05-14T09:49:21;98192.13;;;17.79;100.00
20156;BME280;10238;49.556;10.956;2023-05-14T09:52:10;98184.91;;;17.99;100.00
20156;BME280;10238;49.556;10.956;2023-05-14T09:54:59;98184.91;;;18.25;100.00
20156;BME280;10238;49.556;10.956;2023-05-14T09:57:47;98180.16;;;18.53;100.00
20156;BME280;10238;49.556;10.956;2023-05-14T10:00:37;98172.06;;;18.66;100.00
20156;BME280;10238;49.556;10.956;2023-05-14T10:03:26;98159.91;;;19.14;100.00
20156;BME280;10238;49.556;10.956;2023-05-14T10:06:21;98154.31;;;19.66;100.00
20156;BME280;10238;49.556;10.956;2023-05-14T10:09:12;98145.91;;;19.81;100.00
20156;BME280;10238;49.556;10.956;2023-05-14T10:12:00;98149.28;;;19.70;100.00
20156;BME280;10238;49.556;10.956;2023-05-14T10:14:52;98154.13;;;19.61;100.00
20156;BME280;10238;49.556;10.956;2023-05-14T10:17:47;98146.34;;;19.78;100.00
20156;BME280;10238;49.556;10.956;2023-05-14T10:20:39;98147.00;;;20.04;99.99
20156;BME280;10238;49.556;10.956;2023-05-14T10:23:29;98145.72;;;20.13;100.00
20156;BME280;10238;49.556;10.956;2023-05-14T10:26:17;98142.94;;;20.20;100.00
20156;BME280;10238;49.556;10.956;2023-05-14T10:29:09;98132.31;;;20.25;98.38
20156;BME280;10238;49.556;10.956;2023-05-14T10:31:56;98137.72;;;20.25;100.00
20156;BME280;10238;49.556;10.956;2023-05-14T10:34:45;98132.69;;;20.28;100.00
20156;BME280;10238;49.556;10.956;2023-05-14T10:37:33;98135.47;;;20.40;100.00
20156;BME280;10238;49.556;10.956;2023-05-14T10:40:23;98133.41;;;20.42;100.00
20156;BME280;10238;49.556;10.956;2023-05-14T10:43:11;98119.66;;;20.43;100.00
20156;BME280;10238;49.556;10.956;2023-05-14T10:46:00;98120.94;;;20.41;100.00
20156;BME280;10238;49.556;10.956;2023-05-14T10:48:49;98124.31;;;20.36;100.00
20156;BME280;10238;49.556;10.956;2023-05-14T10:51:37;98121.06;;;20.28;98.71
20156;BME280;10238;49.556;10.956;2023-05-14T10:54:27;98122.44;;;20.12;98.17
20156;BME280;10238;49.556;10.956;2023-05-14T10:57:17;98122.03;;;20.09;99.45
20156;BME280;10238;49.556;10.956;2023-05-14T11:00:07;98122.47;;;20.06;99.02
20156;BME280;10238;49.556;10.956;2023-05-14T11:02:56;98122.16;;;19.96;96.63
20156;BME280;10238;49.556;10.956;2023-05-14T11:05:45;98120.09;;;19.91;96.37
20156;BME280;10238;49.556;10.956;2023-05-14T11:08:33;98112.88;;;19.85;97.55
20156;BME280;10238;49.556;10.956;2023-05-14T11:11:22;98111.50;;;19.76;97.44
20156;BME280;10238;49.556;10.956;2023-05-14T11:14:12;98112.34;;;19.77;99.06
20156;BME280;10238;49.556;10.956;2023-05-14T11:17:00;98106.72;;;19.78;97.05
20156;BME280;10238;49.556;10.956;2023-05-14T11:19:48;98105.91;;;19.71;98.17
20156;BME280;10238;49.556;10.956;2023-05-14T11:22:38;98096.38;;;20.00;98.47
20156;BME280;10238;49.556;10.956;2023-05-14T11:25:27;98096.91;;;20.33;96.38
20156;BME280;10238;49.556;10.956;2023-05-14T11:28:15;98090.94;;;20.49;94.81
20156;BME280;10238;49.556;10.956;2023-05-14T11:31:04;98086.50;;;20.54;93.98
20156;BME280;10238;49.556;10.956;2023-05-14T11:33:52;98087.81;;;20.70;91.19
20156;BME280;10238;49.556;10.956;2023-05-14T11:36:40;98072.72;;;20.80;87.20
20156;BME280;10238;49.556;10.956;2023-05-14T11:39:29;98080.88;;;21.10;87.78
20156;BME280;10238;49.556;10.956;2023-05-14T11:42:19;98083.34;;;21.29;86.40
20156;BME280;10238;49.556;10.956;2023-05-14T11:45:10;98087.03;;;21.47;86.01
20156;BME280;10238;49.556;10.956;2023-05-14T11:48:11;98081.94;;;21.57;86.82
20156;BME280;10238;49.556;10.956;2023-05-14T11:51:04;98079.03;;;21.70;88.59
20156;BME280;10238;49.556;10.956;2023-05-14T11:53:53;98066.97;;;21.66;86.74
20156;BME280;10238;49.556;10.956;2023-05-14T11:56:50;98070.38;;;21.61;84.11
20156;BME280;10238;49.556;10.956;2023-05-14T11:59:41;98059.47;;;21.68;82.52
20156;BME280;10238;49.556;10.956;2023-05-14T12:02:37;98062.69;;;21.76;83.75
20156;BME280;10238;49.556;10.956;2023-05-14T12:05:26;98048.00;;;21.95;84.73
20156;BME280;10238;49.556;10.956;2023-05-14T12:08:21;98052.03;;;21.93;82.61
20156;BME280;10238;49.556;10.956;2023-05-14T12:11:08;98047.78;;;21.85;83.76
20156;BME280;10238;49.556;10.956;2023-05-14T12:14:00;98046.69;;;21.86;82.09
20156;BME280;10238;49.556;10.956;2023-05-14T12:16:51;98041.66;;;21.90;83.31
20156;BME280;10238;49.556;10.956;2023-05-14T12:19:40;98037.56;;;21.99;84.30
20156;BME280;10238;49.556;10.956;2023-05-14T12:22:29;98041.28;;;21.98;82.87
20156;BME280;10238;49.556;10.956;2023-05-14T12:25:17;98030.00;;;21.89;83.25
20156;BME280;10238;49.556;10.956;2023-05-14T12:28:13;98032.00;;;22.05;84.25
20156;BME280;10238;49.556;10.956;2023-05-14T12:31:01;98024.72;;;22.29;82.90
20156;BME280;10238;49.556;10.956;2023-05-14T12:33:49;98029.41;;;22.45;82.17
20156;BME280;10238;49.556;10.956;2023-05-14T12:36:36;98024.59;;;22.58;79.51
20156;BME280;10238;49.556;10.956;2023-05-14T12:39:25;98015.72;;;22.74;78.29
20156;BME280;10238;49.556;10.956;2023-05-14T12:42:14;98024.16;;;22.89;78.84
20156;BME280;10238;49.556;10.956;2023-05-14T12:45:02;98006.59;;;23.20;78.26
20156;BME280;10238;49.556;10.956;2023-05-14T12:47:52;98009.66;;;23.23;70.48
20156;BME280;10238;49.556;10.956;2023-05-14T12:50:40;98008.75;;;23.06;74.81
20156;BME280;10238;49.556;10.956;2023-05-14T12:53:27;98008.53;;;23.08;76.42
20156;BME280;10238;49.556;10.956;2023-05-14T12:56:16;98005.41;;;23.27;77.27
20156;BME280;10238;49.556;10.956;2023-05-14T12:59:04;97996.69;;;23.25;75.94
20156;BME280;10238;49.556;10.956;2023-05-14T13:01:51;97995.50;;;23.21;76.27
20156;BME280;10238;49.556;10.956;2023-05-14T13:04:39;97991.63;;;23.17;75.73
20156;BME280;10238;49.556;10.956;2023-05-14T13:07:27;97985.44;;;23.05;77.23
20156;BME280;10238;49.556;10.956;2023-05-14T13:10:16;97987.97;;;23.12;76.16
20156;BME280;10238;49.556;10.956;2023-05-14T13:13:05;97987.53;;;23.60;70.80
20156;BME280;10238;49.556;10.956;2023-05-14T13:15:52;97975.28;;;24.07;69.69
20156;BME280;10238;49.556;10.956;2023-05-14T13:18:40;97982.34;;;24.08;60.02
20156;BME280;10238;49.556;10.956;2023-05-14T13:21:28;97975.25;;;23.90;67.17
20156;BME280;10238;49.556;10.956;2023-05-14T13:24:16;97968.00;;;24.12;70.35
20156;BME280;10238;49.556;10.956;2023-05-14T13:27:04;97972.50;;;24.45;69.11
20156;BME280;10238;49.556;10.956;2023-05-14T13:29:53;97965.78;;;24.90;64.67
20156;BME280;10238;49.556;10.956;2023-05-14T13:32:42;97963.13;;;24.95;69.72
20156;BME280;10238;49.556;10.956;2023-05-14T13:35:30;97956.16;;;25.31;67.14
20156;BME280;10238;49.556;10.956;2023-05-14T13:38:18;97953.19;;;25.64;64.82
20156;BME280;10238;49.556;10.956;2023-05-14T13:41:08;97952.94;;;25.71;65.84
20156;BME280;10238;49.556;10.956;2023-05-14T13:43:58;97944.75;;;25.66;57.95
20156;BME280;10238;49.556;10.956;2023-05-14T13:46:50;97943.28;;;25.53;66.79
20156;BME280;10238;49.556;10.956;2023-05-14T13:49:39;97947.59;;;25.22;66.13
20156;BME280;10238;49.556;10.956;2023-05-14T13:52:26;97943.00;;;25.23;67.65
20156;BME280;10238;49.556;10.956;2023-05-14T13:55:14;97942.38;;;25.16;66.66
20156;BME280;10238;49.556;10.956;2023-05-14T13:58:02;97938.53;;;25.12;65.37
20156;BME280;10238;49.556;10.956;2023-05-14T14:00:50;97941.75;;;24.82;64.04
20156;BME280;10238;49.556;10.956;2023-05-14T14:03:39;97928.13;;;24.61;62.66
20156;BME280;10238;49.556;10.956;2023-05-14T14:06:30;97929.59;;;24.47;64.69
20156;BME280;10238;49.556;10.956;2023-05-14T14:09:21;97925.75;;;24.43;67.17
20156;BME280;10238;49.556;10.956;2023-05-14T14:12:09;97922.94;;;24.33;63.95
20156;BME280;10238;49.556;10.956;2023-05-14T14:14:57;97927.19;;;24.29;65.89
20156;BME280;10238;49.556;10.956;2023-05-14T14:17:45;97925.31;;;24.08;65.98
20156;BME280;10238;49.556;10.956;2023-05-14T14:20:34;97917.84;;;23.82;68.13
20156;BME280;10238;49.556;10.956;2023-05-14T14:23:22;97920.69;;;23.92;67.16
20156;BME280;10238;49.556;10.956;2023-05-14T14:26:09;97914.84;;;24.00;69.98
20156;BME280;10238;49.556;10.956;2023-05-14T14:28:57;97915.19;;;23.87;67.24
20156;BME280;10238;49.556;10.956;2023-05-14T14:31:45;97907.63;;;23.72;68.59
20156;BME280;10238;49.556;10.956;2023-05-14T14:34:32;97915.72;;;23.51;68.15
20156;BME280;10238;49.556;10.956;2023-05-14T14:37:21;97911.25;;;23.28;66.98